createdAt,value
2023-04-02T00:00:22.404Z,96.87
2023-04-02T00:01:22.448Z,95.27
2023-04-02T00:02:22.580Z,100.60
2023-04-02T00:03:22.620Z,98.19
2023-04-02T00:04:22.557Z,99.60
2023-04-02T00:05:22.554Z,100.52
2023-04-02T00:06:22.588Z,99.94
2023-04-02T00:07:22.612Z,95.06
2023-04-02T00:08:22.622Z,95.62
2023-04-02T00:09:22.635Z,98.82
2023-04-02T00:10:22.680Z,99.24
2023-04-02T00:11:22.700Z,97.86
2023-04-02T00:12:22.739Z,100.36
2023-04-02T00:13:22.744Z,98.04
2023-04-02T00:14:22.794Z,99.75
2023-04-02T00:15:22.763Z,99.57
2023-04-02T00:16:22.853Z,95.44
2023-04-02T00:17:22.857Z,100.59
2023-04-02T00:18:22.858Z,95.07
2023-04-02T00:19:22.839Z,98.44
2023-04-02T00:20:22.896Z,98.18
2023-04-02T00:21:22.880Z,98.25
2023-04-02T00:22:22.916Z,97.96
2023-04-02T00:23:22.929Z,96.12
2023-04-02T00:24:22.976Z,99.35
2023-04-02T00:25:22.974Z,96.48
2023-04-02T00:26:23.061Z,98.68
2023-04-02T00:27:23.029Z,97.74
2023-04-02T00:28:23.054Z,98.24
2023-04-02T00:29:23.047Z,97.96
2023-04-02T00:30:23.083Z,97.63
2023-04-02T00:31:23.192Z,98.57
2023-04-02T00:32:23.189Z,97.17
2023-04-02T00:33:23.145Z,96.77
2023-04-02T00:34:23.147Z,94.80
2023-04-02T00:35:23.197Z,95.46
2023-04-02T00:36:23.284Z,100.04
2023-04-02T00:37:23.289Z,97.90
2023-04-02T00:38:23.232Z,98.82
2023-04-02T00:39:23.270Z,101.06
2023-04-02T00:40:23.292Z,98.09
2023-04-02T00:41:23.290Z,98.10
2023-04-02T00:42:23.343Z,97.82
2023-04-02T00:43:23.344Z,100.49
2023-04-02T00:44:23.388Z,98.09
2023-04-02T00:45:23.429Z,98.18
2023-04-02T00:46:23.544Z,97.00
2023-04-02T00:47:23.454Z,97.62
2023-04-02T00:48:23.456Z,99.30
2023-04-02T00:49:23.497Z,97.21
2023-04-02T00:50:23.568Z,98.92
2023-04-02T00:51:23.537Z,96.19
2023-04-02T00:52:23.573Z,97.15
2023-04-02T00:53:23.592Z,101.03
2023-04-02T00:54:23.610Z,95.96
2023-04-02T00:55:23.674Z,102.52
2023-04-02T00:56:23.716Z,98.39
2023-04-02T00:57:23.712Z,97.38
2023-04-02T00:58:23.770Z,97.20
2023-04-02T00:59:23.756Z,94.92
2023-04-02T01:00:23.830Z,97.52
2023-04-02T01:01:23.806Z,95.85
2023-04-02T01:02:23.852Z,94.29
2023-04-02T01:03:23.926Z,96.72
2023-04-02T01:04:23.873Z,95.81
2023-04-02T01:05:23.893Z,92.77
2023-04-02T01:06:23.907Z,95.37
2023-04-02T01:07:23.905Z,95.89
2023-04-02T01:08:23.951Z,98.84
2023-04-02T01:09:23.973Z,97.94
2023-04-02T01:10:23.978Z,96.31
2023-04-02T01:11:24.057Z,96.99
2023-04-02T01:12:24.087Z,97.43
2023-04-02T01:13:24.104Z,96.85
2023-04-02T01:14:24.094Z,98.32
2023-04-02T01:15:24.137Z,90.67
2023-04-02T01:16:24.188Z,97.47
2023-04-02T01:17:24.236Z,99.96
2023-04-02T01:18:24.212Z,94.31
2023-04-02T01:19:24.240Z,94.32
2023-04-02T01:20:24.220Z,97.24
2023-04-02T01:21:24.279Z,93.67
2023-04-02T01:22:24.311Z,97.76
2023-04-02T01:23:24.352Z,95.49
2023-04-02T01:24:24.318Z,96.51
2023-04-02T01:25:24.349Z,97.72
2023-04-02T01:26:24.372Z,99.08
2023-04-02T01:27:24.440Z,98.74
2023-04-02T01:28:24.426Z,96.59
2023-04-02T01:29:24.475Z,95.78
2023-04-02T01:30:24.512Z,94.64
2023-04-02T01:31:24.531Z,98.94
2023-04-02T01:32:24.637Z,92.35
2023-04-02T01:33:24.550Z,95.99
2023-04-02T01:34:26.050Z,96.96
2023-04-02T01:35:24.611Z,94.07
2023-04-02T01:36:24.638Z,95.97
2023-04-02T01:37:24.706Z,94.42
2023-04-02T01:38:24.696Z,94.86
2023-04-02T01:39:24.713Z,96.05
2023-04-02T01:40:24.747Z,98.65
2023-04-02T01:41:24.753Z,96.85
2023-04-02T01:42:24.869Z,96.43
2023-04-02T01:43:24.890Z,96.60
2023-04-02T01:44:24.838Z,94.36
2023-04-02T01:45:24.865Z,95.71
2023-04-02T01:46:24.913Z,94.61
2023-04-02T01:47:24.969Z,96.10
2023-04-02T01:48:24.998Z,93.19
2023-04-02T01:49:24.997Z,92.53
2023-04-02T01:50:25.011Z,95.27
2023-04-02T01:51:25.014Z,94.79
2023-04-02T01:52:25.034Z,93.66
2023-04-02T01:53:25.080Z,95.19
2023-04-02T01:54:25.081Z,98.90
2023-04-02T01:55:25.125Z,94.66
2023-04-02T01:56:25.144Z,96.56
2023-04-02T01:57:25.225Z,94.07
2023-04-02T01:58:25.162Z,93.40
2023-04-02T01:59:25.192Z,94.33
2023-04-02T02:00:25.226Z,96.35
2023-04-02T02:01:25.290Z,92.48
2023-04-02T02:02:25.390Z,94.91
2023-04-02T02:03:25.314Z,94.54
2023-04-02T02:04:25.294Z,93.79
2023-04-02T02:05:25.392Z,92.08
2023-04-02T02:06:25.402Z,93.12
2023-04-02T02:07:25.430Z,92.56
2023-04-02T02:08:25.439Z,92.40
2023-04-02T02:09:25.417Z,90.08
2023-04-02T02:10:25.494Z,90.78
2023-04-02T02:11:25.469Z,95.16
2023-04-02T02:12:25.510Z,90.35
2023-04-02T02:13:25.646Z,93.27
2023-04-02T02:14:25.638Z,93.53
2023-04-02T02:15:25.587Z,91.60
2023-04-02T02:16:25.634Z,88.04
2023-04-02T02:17:25.770Z,97.11
2023-04-02T02:18:25.762Z,88.44
2023-04-02T02:19:25.766Z,97.54
2023-04-02T02:20:25.695Z,91.41
2023-04-02T02:21:25.734Z,91.64
2023-04-02T02:22:25.766Z,92.71
2023-04-02T02:23:25.789Z,92.95
2023-04-02T02:24:25.803Z,92.73
2023-04-02T02:25:25.820Z,92.08
2023-04-02T02:26:25.849Z,93.57
2023-04-02T02:27:25.868Z,91.31
2023-04-02T02:28:25.891Z,93.40
2023-04-02T02:29:25.923Z,90.00
2023-04-02T02:30:25.971Z,91.63
2023-04-02T02:31:25.975Z,89.91
2023-04-02T02:32:26.056Z,88.26
2023-04-02T02:33:26.039Z,91.27
2023-04-02T02:34:26.020Z,90.01
2023-04-02T02:35:26.086Z,93.08
2023-04-02T02:36:26.139Z,92.06
2023-04-02T02:37:26.120Z,88.68
2023-04-02T02:38:26.151Z,91.82
2023-04-02T02:39:26.186Z,92.90
2023-04-02T02:40:26.174Z,90.95
2023-04-02T02:41:26.236Z,90.22
2023-04-02T02:42:26.361Z,89.28
2023-04-02T02:43:26.269Z,93.40
2023-04-02T02:44:26.266Z,90.16
2023-04-02T02:45:26.330Z,88.89
2023-04-02T02:46:26.451Z,87.81
2023-04-02T02:47:26.376Z,90.88
2023-04-02T02:48:26.349Z,89.58
2023-04-02T02:49:26.369Z,88.30
2023-04-02T02:50:26.401Z,90.76
2023-04-02T02:51:26.432Z,89.82
2023-04-02T02:52:26.492Z,90.18
2023-04-02T02:53:26.486Z,89.83
2023-04-02T02:54:26.535Z,85.62
2023-04-02T02:55:26.550Z,87.77
2023-04-02T02:56:26.582Z,89.32
2023-04-02T02:57:27.082Z,87.98
2023-04-02T02:58:26.630Z,91.50
2023-04-02T02:59:26.692Z,87.85
2023-04-02T03:00:26.693Z,84.63
2023-04-02T03:01:26.797Z,86.41
2023-04-02T03:02:26.848Z,91.48
2023-04-02T03:03:26.918Z,87.37
2023-04-02T03:04:26.830Z,87.96
2023-04-02T03:05:26.801Z,87.80
2023-04-02T03:06:26.868Z,88.51
2023-04-02T03:07:26.848Z,86.73
2023-04-02T03:08:26.912Z,87.97
2023-04-02T03:09:26.908Z,90.25
2023-04-02T03:10:26.951Z,89.03
2023-04-02T03:11:26.993Z,89.15
2023-04-02T03:12:27.036Z,88.91
2023-04-02T03:13:27.099Z,89.18
2023-04-02T03:14:27.065Z,86.73
2023-04-02T03:15:27.134Z,88.15
2023-04-02T03:16:27.129Z,86.22
2023-04-02T03:17:27.190Z,86.86
2023-04-02T03:18:27.187Z,85.32
2023-04-02T03:19:27.204Z,86.37
2023-04-02T03:20:27.212Z,87.20
2023-04-02T03:21:27.223Z,87.16
2023-04-02T03:22:27.228Z,89.21
2023-04-02T03:23:27.282Z,86.65
2023-04-02T03:24:27.309Z,89.01
2023-04-02T03:25:27.352Z,86.28
2023-04-02T03:26:27.359Z,87.99
2023-04-02T03:27:27.468Z,86.86
2023-04-02T03:28:27.432Z,89.57
2023-04-02T03:29:27.403Z,88.89
2023-04-02T03:30:27.438Z,85.09
2023-04-02T03:31:27.525Z,86.00
2023-04-02T03:32:27.582Z,87.32
2023-04-02T03:33:27.523Z,87.09
2023-04-02T03:34:27.691Z,86.49
2023-04-02T03:35:27.564Z,87.64
2023-04-02T03:36:27.597Z,85.36
2023-04-02T03:37:27.623Z,88.32
2023-04-02T03:38:27.676Z,86.53
2023-04-02T03:39:27.695Z,85.86
2023-04-02T03:40:27.706Z,87.03
2023-04-02T03:41:27.746Z,86.70
2023-04-02T03:42:27.738Z,86.45
2023-04-02T03:43:27.803Z,85.56
2023-04-02T03:44:27.781Z,85.82
2023-04-02T03:45:27.819Z,87.16
2023-04-02T03:46:27.897Z,86.81
2023-04-02T03:47:27.946Z,85.08
2023-04-02T03:48:27.914Z,85.66
2023-04-02T03:49:29.559Z,84.88
2023-04-02T03:50:27.928Z,84.11
2023-04-02T03:51:27.973Z,81.49
2023-04-02T03:52:27.986Z,85.03
2023-04-02T03:53:28.061Z,85.06
2023-04-02T03:54:28.076Z,84.79
2023-04-02T03:55:28.086Z,84.57
2023-04-02T03:56:28.122Z,85.17
2023-04-02T03:57:28.204Z,85.83
2023-04-02T03:58:28.159Z,81.73
2023-04-02T03:59:28.192Z,86.30
2023-04-02T04:00:28.217Z,82.83
2023-04-02T04:01:28.227Z,84.86
2023-04-02T04:02:28.257Z,83.15
2023-04-02T04:03:28.299Z,85.37
2023-04-02T04:04:28.397Z,84.59
2023-04-02T04:05:28.369Z,84.69
2023-04-02T04:06:28.367Z,81.99
2023-04-02T04:07:28.425Z,84.46
2023-04-02T04:08:28.470Z,83.27
2023-04-02T04:09:28.476Z,82.45
2023-04-02T04:10:28.534Z,82.35
2023-04-02T04:11:28.617Z,83.71
2023-04-02T04:12:28.558Z,83.76
2023-04-02T04:13:28.563Z,83.10
2023-04-02T04:14:28.647Z,86.83
2023-04-02T04:15:28.622Z,79.86
2023-04-02T04:16:28.703Z,82.40
2023-04-02T04:17:28.736Z,83.93
2023-04-02T04:18:28.741Z,83.18
2023-04-02T04:19:28.746Z,81.83
2023-04-02T04:20:28.793Z,84.48
2023-04-02T04:21:28.786Z,78.39
2023-04-02T04:22:28.844Z,81.25
2023-04-02T04:23:28.856Z,82.81
2023-04-02T04:24:28.946Z,84.03
2023-04-02T04:25:28.973Z,82.70
2023-04-02T04:26:28.924Z,83.08
2023-04-02T04:27:28.997Z,82.80
2023-04-02T04:28:28.990Z,83.24
2023-04-02T04:29:29.037Z,83.92
2023-04-02T04:30:29.057Z,78.30
2023-04-02T04:31:29.099Z,81.04
2023-04-02T04:32:30.025Z,77.63
2023-04-02T04:33:29.177Z,81.01
2023-04-02T04:34:29.198Z,86.08
2023-04-02T04:35:29.274Z,83.93
2023-04-02T04:36:29.237Z,78.47
2023-04-02T04:37:29.332Z,77.40
2023-04-02T04:38:29.309Z,84.40
2023-04-02T04:39:29.498Z,80.03
2023-04-02T04:40:29.350Z,78.15
2023-04-02T04:41:29.367Z,78.43
2023-04-02T04:42:29.420Z,80.35
2023-04-02T04:43:29.424Z,80.60
2023-04-02T04:44:29.458Z,79.01
2023-04-02T04:45:29.470Z,81.43
2023-04-02T04:46:29.493Z,79.84
2023-04-02T04:47:29.550Z,81.01
2023-04-02T04:48:29.561Z,84.16
2023-04-02T04:49:29.741Z,77.16
2023-04-02T04:50:29.598Z,82.23
2023-04-02T04:51:29.632Z,76.22
2023-04-02T04:52:29.691Z,78.01
2023-04-02T04:53:29.714Z,75.50
2023-04-02T04:54:29.745Z,79.25
2023-04-02T04:55:29.760Z,77.26
2023-04-02T04:56:29.815Z,76.40
2023-04-02T04:57:29.938Z,76.81
2023-04-02T04:58:29.877Z,79.80
2023-04-02T04:59:29.896Z,78.39
2023-04-02T05:00:29.893Z,79.28
2023-04-02T05:01:29.988Z,80.10
2023-04-02T05:02:30.076Z,77.30
2023-04-02T05:03:30.032Z,77.34
2023-04-02T05:04:30.173Z,74.59
2023-04-02T05:05:30.070Z,77.78
2023-04-02T05:06:30.105Z,73.51
2023-04-02T05:07:30.139Z,77.48
2023-04-02T05:08:30.150Z,77.39
2023-04-02T05:09:30.188Z,78.99
2023-04-02T05:10:30.216Z,77.82
2023-04-02T05:11:30.260Z,78.33
2023-04-02T05:12:30.257Z,77.76
2023-04-02T05:13:30.331Z,78.03
2023-04-02T05:14:30.348Z,78.38
2023-04-02T05:15:30.396Z,78.50
2023-04-02T05:16:30.423Z,77.90
2023-04-02T05:17:30.575Z,73.35
2023-04-02T05:18:30.488Z,76.09
2023-04-02T05:19:30.486Z,79.49
2023-04-02T05:20:30.549Z,77.05
2023-04-02T05:21:30.594Z,73.17
2023-04-02T05:22:30.576Z,76.25
2023-04-02T05:23:30.635Z,76.50
2023-04-02T05:24:30.693Z,72.38
2023-04-02T05:25:30.688Z,73.69
2023-04-02T05:26:30.734Z,76.38
2023-04-02T05:27:30.784Z,77.96
2023-04-02T05:28:30.813Z,75.11
2023-04-02T05:29:30.814Z,74.13
2023-04-02T05:30:30.867Z,78.05
2023-04-02T05:31:30.962Z,73.73
2023-04-02T05:32:30.938Z,77.62
2023-04-02T05:33:30.953Z,74.35
2023-04-02T05:34:30.993Z,75.39
2023-04-02T05:35:31.064Z,76.36
2023-04-02T05:36:31.044Z,74.99
2023-04-02T05:37:31.083Z,76.47
2023-04-02T05:38:31.121Z,77.04
2023-04-02T05:39:31.159Z,80.36
2023-04-02T05:40:31.178Z,74.11
2023-04-02T05:41:32.060Z,76.91
2023-04-02T05:42:31.230Z,75.91
2023-04-02T05:43:31.274Z,74.60
2023-04-02T05:44:31.308Z,76.54
2023-04-02T05:45:31.330Z,78.73
2023-04-02T05:46:31.416Z,72.72
2023-04-02T05:47:31.498Z,70.32
2023-04-02T05:48:31.416Z,76.47
2023-04-02T05:49:31.450Z,76.87
2023-04-02T05:50:31.483Z,76.01
2023-04-02T05:51:31.498Z,75.18
2023-04-02T05:52:31.547Z,73.80
2023-04-02T05:53:31.587Z,71.74
2023-04-02T05:54:31.605Z,70.90
2023-04-02T05:55:31.642Z,76.02
2023-04-02T05:56:31.659Z,75.66
2023-04-02T05:57:42.391Z,76.13
2023-04-02T05:58:36.089Z,76.14
2023-04-02T05:59:31.683Z,76.43
2023-04-02T06:00:31.685Z,76.56
2023-04-02T06:01:31.686Z,77.01
2023-04-02T06:02:31.840Z,77.77
2023-04-02T06:03:31.786Z,75.03
2023-04-02T06:04:31.775Z,76.54
2023-04-02T06:05:31.853Z,78.14
2023-04-02T06:06:31.843Z,74.53
2023-04-02T06:07:31.884Z,79.02
2023-04-02T06:08:31.921Z,75.51
2023-04-02T06:09:31.922Z,73.63
2023-04-02T06:10:31.966Z,76.27
2023-04-02T06:11:31.973Z,74.63
2023-04-02T06:12:32.023Z,77.37
2023-04-02T06:13:32.041Z,76.44
2023-04-02T06:14:32.085Z,75.03
2023-04-02T06:15:32.130Z,76.85
2023-04-02T06:16:32.174Z,73.98
2023-04-02T06:17:32.234Z,75.79
2023-04-02T06:18:32.206Z,73.53
2023-04-02T06:19:32.279Z,72.23
2023-04-02T06:20:32.311Z,74.05
2023-04-02T06:21:32.342Z,73.12
2023-04-02T06:22:32.380Z,70.28
2023-04-02T06:23:32.423Z,72.11
2023-04-02T06:24:32.404Z,77.57
2023-04-02T06:25:32.450Z,69.56
2023-04-02T06:26:32.494Z,73.62
2023-04-02T06:27:32.535Z,76.86
2023-04-02T06:28:32.538Z,75.35
2023-04-02T06:29:32.562Z,73.82
2023-04-02T06:30:32.672Z,73.22
2023-04-02T06:31:32.632Z,71.32
2023-04-02T06:32:32.714Z,73.28
2023-04-02T06:33:32.752Z,77.99
2023-04-02T06:34:32.699Z,73.88
2023-04-02T06:35:32.833Z,75.15
2023-04-02T06:36:32.821Z,73.35
2023-04-02T06:37:32.800Z,75.68
2023-04-02T06:38:32.861Z,74.01
2023-04-02T06:39:32.903Z,71.78
2023-04-02T06:40:32.989Z,74.46
2023-04-02T06:41:33.004Z,76.28
2023-04-02T06:42:33.021Z,74.94
2023-04-02T06:43:33.054Z,77.92
2023-04-02T06:44:33.062Z,73.98
2023-04-02T06:45:33.263Z,75.68
2023-04-02T06:46:33.156Z,76.30
2023-04-02T06:47:33.205Z,72.44
2023-04-02T06:48:33.201Z,77.35
2023-04-02T06:49:33.213Z,72.20
2023-04-02T06:50:33.232Z,77.23
2023-04-02T06:51:33.290Z,76.56
2023-04-02T06:52:34.967Z,72.18
2023-04-02T06:53:33.328Z,73.69
2023-04-02T06:54:33.364Z,72.40
2023-04-02T06:55:33.666Z,72.49
2023-04-02T06:56:33.419Z,71.54
2023-04-02T06:57:34.139Z,69.36
2023-04-02T06:58:33.509Z,72.27
2023-04-02T06:59:33.523Z,72.85
2023-04-02T07:00:33.564Z,73.11
2023-04-02T07:01:33.676Z,72.08
2023-04-02T07:02:33.667Z,70.42
2023-04-02T07:03:33.655Z,71.63
2023-04-02T07:04:33.706Z,67.54
2023-04-02T07:05:33.838Z,69.06
2023-04-02T07:06:33.748Z,73.24
2023-04-02T07:07:33.776Z,71.71
2023-04-02T07:08:33.811Z,71.55
2023-04-02T07:09:33.846Z,71.23
2023-04-02T07:10:33.847Z,73.48
2023-04-02T07:11:33.896Z,73.35
2023-04-02T07:12:33.923Z,70.27
2023-04-02T07:13:33.950Z,69.87
2023-04-02T07:14:33.976Z,71.77
2023-04-02T07:15:34.300Z,69.03
2023-04-02T07:16:34.044Z,69.73
2023-04-02T07:17:34.122Z,68.78
2023-04-02T07:18:34.124Z,69.89
2023-04-02T07:19:34.182Z,67.13
2023-04-02T07:20:34.190Z,70.50
2023-04-02T07:21:34.225Z,70.84
2023-04-02T07:22:34.253Z,66.36
2023-04-02T07:23:34.302Z,72.63
2023-04-02T07:24:34.383Z,71.78
2023-04-02T07:25:34.573Z,67.40
2023-04-02T07:26:34.380Z,72.64
2023-04-02T07:27:34.399Z,68.80
2023-04-02T07:28:34.433Z,67.26
2023-04-02T07:29:34.474Z,67.15
2023-04-02T07:30:34.513Z,69.68
2023-04-02T07:31:34.570Z,70.08
2023-04-02T07:32:34.591Z,67.56
2023-04-02T07:33:34.614Z,68.31
2023-04-02T07:34:34.613Z,68.51
2023-04-02T07:35:34.909Z,65.30
2023-04-02T07:36:34.671Z,67.51
2023-04-02T07:37:34.726Z,67.94
2023-04-02T07:38:34.761Z,66.93
2023-04-02T07:39:36.534Z,64.06
2023-04-02T07:40:34.768Z,66.36
2023-04-02T07:41:34.778Z,66.55
2023-04-02T07:42:34.750Z,64.29
2023-04-02T07:43:34.769Z,67.71
2023-04-02T07:44:34.796Z,68.47
2023-04-02T07:45:34.879Z,64.95
2023-04-02T07:46:34.758Z,64.65
2023-04-02T07:47:34.758Z,64.73
2023-04-02T07:48:34.694Z,65.75
2023-04-02T07:49:34.691Z,63.02
2023-04-02T07:50:34.691Z,62.46
2023-04-02T07:51:34.689Z,63.13
2023-04-02T07:52:34.676Z,62.09
2023-04-02T07:53:34.646Z,61.68
2023-04-02T07:54:34.644Z,62.66
2023-04-02T07:55:34.783Z,63.27
2023-04-02T07:56:34.642Z,66.55
2023-04-02T07:57:34.723Z,65.21
2023-04-02T07:58:34.638Z,62.09
2023-04-02T07:59:34.613Z,63.42
2023-04-02T08:00:34.609Z,67.15
2023-04-02T08:01:34.639Z,66.08
2023-04-02T08:02:34.718Z,61.93
2023-04-02T08:03:34.722Z,60.29
2023-04-02T08:04:34.596Z,63.85
2023-04-02T08:05:34.705Z,61.74
2023-04-02T08:06:34.580Z,62.80
2023-04-02T08:07:34.576Z,65.76
2023-04-02T08:08:34.596Z,64.56
2023-04-02T08:09:34.552Z,63.33
2023-04-02T08:10:34.586Z,64.76
2023-04-02T08:11:34.586Z,63.64
2023-04-02T08:12:34.513Z,65.24
2023-04-02T08:13:34.548Z,64.64
2023-04-02T08:14:34.562Z,67.19
2023-04-02T08:15:34.789Z,68.09
2023-04-02T08:16:34.529Z,66.30
2023-04-02T08:17:34.488Z,67.47
2023-04-02T08:18:34.501Z,67.72
2023-04-02T08:19:41.533Z,67.34
2023-04-02T08:20:35.514Z,67.56
2023-04-02T08:21:34.487Z,68.06
2023-04-02T08:22:34.580Z,67.45
2023-04-02T08:23:34.485Z,66.10
2023-04-02T08:24:34.472Z,70.45
2023-04-02T08:25:34.684Z,66.70
2023-04-02T08:26:34.440Z,68.78
2023-04-02T08:27:34.448Z,66.61
2023-04-02T08:28:34.481Z,68.70
2023-04-02T08:29:34.451Z,67.34
2023-04-02T08:30:34.447Z,65.16
2023-04-02T08:31:34.422Z,70.45
2023-04-02T08:32:34.413Z,67.80
2023-04-02T08:33:34.407Z,68.87
2023-04-02T08:34:34.406Z,70.47
2023-04-02T08:35:34.839Z,67.92
2023-04-02T08:36:34.366Z,66.43
2023-04-02T08:37:34.365Z,64.24
2023-04-02T08:38:34.384Z,65.89
2023-04-02T08:39:34.358Z,65.03
2023-04-02T08:40:34.378Z,67.34
2023-04-02T08:41:34.376Z,64.47
2023-04-02T08:42:34.402Z,65.17
2023-04-02T08:43:34.420Z,66.69
2023-04-02T08:44:34.431Z,65.77
2023-04-02T08:45:34.516Z,71.55
2023-04-02T08:46:34.514Z,67.09
2023-04-02T08:47:34.602Z,67.05
2023-04-02T08:48:34.547Z,71.09
2023-04-02T08:49:34.529Z,70.07
2023-04-02T08:50:34.542Z,70.10
2023-04-02T08:51:34.603Z,70.47
2023-04-02T08:52:34.589Z,71.56
2023-04-02T08:53:34.599Z,69.91
2023-04-02T08:54:34.936Z,72.36
2023-04-02T08:55:34.901Z,70.84
2023-04-02T08:56:34.646Z,71.21
2023-04-02T08:57:34.757Z,72.42
2023-04-02T08:58:34.698Z,70.93
2023-04-02T08:59:34.698Z,67.65
2023-04-02T09:00:36.821Z,69.82
2023-04-02T09:01:34.859Z,68.76
2023-04-02T09:02:34.754Z,64.84
2023-04-02T09:03:34.775Z,67.56
2023-04-02T09:04:34.831Z,66.84
2023-04-02T09:05:35.061Z,68.81
2023-04-02T09:06:34.741Z,70.74
2023-04-02T09:07:34.710Z,69.46
2023-04-02T09:08:34.670Z,69.92
2023-04-02T09:09:34.664Z,74.93
2023-04-02T09:10:34.659Z,68.89
2023-04-02T09:11:34.629Z,72.65
2023-04-02T09:12:34.639Z,72.12
2023-04-02T09:13:34.627Z,75.18
2023-04-02T09:14:34.628Z,71.45
2023-04-02T09:15:34.875Z,71.12
2023-04-02T09:16:34.652Z,71.49
2023-04-02T09:17:42.802Z,73.63
2023-04-02T09:18:35.622Z,73.89
2023-04-02T09:19:34.578Z,73.73
2023-04-02T09:20:34.587Z,74.74
2023-04-02T09:21:34.612Z,75.34
2023-04-02T09:22:34.598Z,78.05
2023-04-02T09:23:34.578Z,76.40
2023-04-02T09:24:34.580Z,73.91
2023-04-02T09:25:34.741Z,74.37
2023-04-02T09:26:34.551Z,76.25
2023-04-02T09:27:34.510Z,76.56
2023-04-02T09:28:34.522Z,73.91
2023-04-02T09:29:34.505Z,74.45
2023-04-02T09:30:34.543Z,74.54
2023-04-02T09:31:34.523Z,74.28
2023-04-02T09:32:34.533Z,73.68
2023-04-02T09:33:34.460Z,74.52
2023-04-02T09:34:34.482Z,75.65
2023-04-02T09:35:34.513Z,77.20
2023-04-02T09:36:34.486Z,74.84
2023-04-02T09:37:34.476Z,74.40
2023-04-02T09:38:34.459Z,76.49
2023-04-02T09:39:34.535Z,72.89
2023-04-02T09:40:34.466Z,74.72
2023-04-02T09:41:36.710Z,72.90
2023-04-02T09:42:34.655Z,74.54
2023-04-02T09:43:34.690Z,72.30
2023-04-02T09:44:34.688Z,76.28
2023-04-02T09:45:34.800Z,71.48
2023-04-02T09:46:34.735Z,75.11
2023-04-02T09:47:35.540Z,74.39
2023-04-02T09:48:34.797Z,76.81
2023-04-02T09:49:34.782Z,76.15
2023-04-02T09:50:34.779Z,73.50
2023-04-02T09:51:34.802Z,73.79
2023-04-02T09:52:34.789Z,72.19
2023-04-02T09:53:34.793Z,74.32
2023-04-02T09:54:34.833Z,74.48
2023-04-02T09:55:35.007Z,74.45
2023-04-02T09:56:34.846Z,73.79
2023-04-02T09:57:34.891Z,74.34
2023-04-02T09:58:34.891Z,72.92
2023-04-02T09:59:34.889Z,75.20
2023-04-02T10:00:34.904Z,73.82
2023-04-02T10:01:34.952Z,73.76
2023-04-02T10:02:35.003Z,74.52
2023-04-02T10:03:34.892Z,78.91
2023-04-02T10:04:34.952Z,74.13
2023-04-02T10:06:34.947Z,75.43
2023-04-02T10:07:34.899Z,75.20
2023-04-02T10:08:34.923Z,76.94
2023-04-02T10:09:34.903Z,72.35
2023-04-02T10:10:35.016Z,74.93
2023-04-02T10:11:46.348Z,75.06
2023-04-02T10:12:35.857Z,75.34
2023-04-02T10:13:35.673Z,75.67
2023-04-02T10:14:34.878Z,76.50
2023-04-02T10:15:35.193Z,76.60
2023-04-02T10:16:34.929Z,76.66
2023-04-02T10:17:34.855Z,77.54
2023-04-02T10:18:34.847Z,78.77
2023-04-02T10:19:34.850Z,74.35
2023-04-02T10:20:41.809Z,74.91
2023-04-02T10:21:35.830Z,75.09
2023-04-02T10:22:34.815Z,74.91
2023-04-02T10:23:34.803Z,76.45
2023-04-02T10:24:34.833Z,75.82
2023-04-02T10:25:34.977Z,76.98
2023-04-02T10:26:34.784Z,76.26
2023-04-02T10:27:34.780Z,74.45
2023-04-02T10:28:34.757Z,75.36
2023-04-02T10:29:34.752Z,75.57
2023-04-02T10:30:34.759Z,72.99
2023-04-02T10:31:34.770Z,72.41
2023-04-02T10:32:34.777Z,75.98
2023-04-02T10:33:34.758Z,74.84
2023-04-02T10:34:34.727Z,73.87
2023-04-02T10:35:35.932Z,73.73
2023-04-02T10:36:34.725Z,77.00
2023-04-02T10:37:34.713Z,73.63
2023-04-02T10:38:34.710Z,75.31
2023-04-02T10:39:34.713Z,75.19
2023-04-02T10:40:34.676Z,70.64
2023-04-02T10:41:34.691Z,77.59
2023-04-02T10:42:34.764Z,75.20
2023-04-02T10:43:34.729Z,75.05
2023-04-02T10:44:34.785Z,71.05
2023-04-02T10:45:34.962Z,72.58
2023-04-02T10:46:34.899Z,72.86
2023-04-02T10:47:34.834Z,73.40
2023-04-02T10:48:34.810Z,75.46
2023-04-02T10:49:34.835Z,74.40
2023-04-02T10:50:34.844Z,74.70
2023-04-02T10:51:34.832Z,71.42
2023-04-02T10:52:34.879Z,70.89
2023-04-02T10:53:34.846Z,72.26
2023-04-02T10:54:34.851Z,74.92
2023-04-02T10:55:35.037Z,74.16
2023-04-02T10:56:48.033Z,76.36
2023-04-02T10:57:35.985Z,76.45
2023-04-02T10:58:34.863Z,76.68
2023-04-02T10:59:34.841Z,76.29
2023-04-02T11:00:34.852Z,74.85
2023-04-02T11:01:35.728Z,72.28
2023-04-02T11:02:34.930Z,75.85
2023-04-02T11:03:34.879Z,72.42
2023-04-02T11:04:34.814Z,76.98
2023-04-02T11:05:34.967Z,73.95
2023-04-02T11:06:34.794Z,73.12
2023-04-02T11:07:34.792Z,75.43
2023-04-02T11:08:34.778Z,73.26
2023-04-02T11:09:34.777Z,70.73
2023-04-02T11:10:34.795Z,71.59
2023-04-02T11:11:34.787Z,74.38
2023-04-02T11:12:36.594Z,72.29
2023-04-02T11:13:35.784Z,72.43
2023-04-02T11:14:34.784Z,72.91
2023-04-02T11:15:34.993Z,73.80
2023-04-02T11:16:37.733Z,74.12
2023-04-02T11:17:35.762Z,72.49
2023-04-02T11:18:34.714Z,73.27
2023-04-02T11:19:34.743Z,73.47
2023-04-02T11:20:34.714Z,76.58
2023-04-02T11:21:36.814Z,75.01
2023-04-02T11:22:35.687Z,72.65
2023-04-02T11:23:34.674Z,73.40
2023-04-02T11:24:34.673Z,72.90
2023-04-02T11:25:34.847Z,76.52
2023-04-02T11:26:34.640Z,74.29
2023-04-02T11:27:34.675Z,74.72
2023-04-02T11:28:34.677Z,75.30
2023-04-02T11:29:34.660Z,73.58
2023-04-02T11:30:34.648Z,74.42
2023-04-02T11:31:34.667Z,75.29
2023-04-02T11:32:34.650Z,74.06
2023-04-02T11:34:34.634Z,76.36
2023-04-02T11:35:34.959Z,75.50
2023-04-02T11:36:34.599Z,78.30
2023-04-02T11:37:34.582Z,76.15
2023-04-02T11:38:34.605Z,75.26
2023-04-02T11:39:34.582Z,73.92
2023-04-02T11:40:34.551Z,75.48
2023-04-02T11:41:34.556Z,76.71
2023-04-02T11:42:34.559Z,77.24
2023-04-02T11:43:34.634Z,76.29
2023-04-02T11:44:34.546Z,74.12
2023-04-02T11:45:43.073Z,74.49
2023-04-02T11:46:35.580Z,74.79
2023-04-02T11:47:34.561Z,74.96
2023-04-02T11:48:34.540Z,75.09
2023-04-02T11:49:34.512Z,77.25
2023-04-02T11:50:34.548Z,76.70
2023-04-02T11:51:34.514Z,77.91
2023-04-02T11:52:34.477Z,77.22
2023-04-02T11:53:34.516Z,76.06
2023-04-02T11:54:34.469Z,75.35
2023-04-02T11:55:34.736Z,74.47
2023-04-02T11:56:34.452Z,75.63
2023-04-02T11:57:34.585Z,75.46
2023-04-02T11:58:34.472Z,74.14
2023-04-02T11:59:34.442Z,73.10
2023-04-02T12:00:34.707Z,75.55
2023-04-02T12:01:34.403Z,76.06
2023-04-02T12:02:35.485Z,74.62
2023-04-02T12:03:34.423Z,74.68
2023-04-02T12:04:34.432Z,74.59
2023-04-02T12:05:34.585Z,74.48
2023-04-02T12:06:34.428Z,75.67
2023-04-02T12:07:34.427Z,76.02
2023-04-02T12:08:36.167Z,75.82
2023-04-02T12:09:35.455Z,75.95
2023-04-02T12:10:34.473Z,76.05
2023-04-02T12:11:34.401Z,76.60
2023-04-02T12:12:34.384Z,75.58
2023-04-02T12:13:34.375Z,74.52
2023-04-02T12:14:34.380Z,74.65
2023-04-02T12:15:34.727Z,75.61
2023-04-02T12:16:34.416Z,73.64
2023-04-02T12:17:34.369Z,73.19
2023-04-02T12:18:34.368Z,72.70
2023-04-02T12:19:34.364Z,72.70
2023-04-02T12:20:34.573Z,73.36
2023-04-02T12:21:34.352Z,75.31
2023-04-02T12:22:34.315Z,75.65
2023-04-02T12:23:34.334Z,76.58
2023-04-02T12:24:34.310Z,74.83
2023-04-02T12:25:34.330Z,76.93
2023-04-02T12:26:34.317Z,76.34
2023-04-02T12:27:34.343Z,74.91
2023-04-02T12:28:34.289Z,74.41
2023-04-02T12:29:34.278Z,73.79
2023-04-02T12:30:34.567Z,73.84
2023-04-02T12:31:34.429Z,75.47
2023-04-02T12:32:34.338Z,74.28
2023-04-02T12:33:34.313Z,76.83
2023-04-02T12:34:34.330Z,75.65
2023-04-02T12:35:34.382Z,76.13
2023-04-02T12:36:34.318Z,75.12
2023-04-02T12:37:34.348Z,73.74
2023-04-02T12:38:34.382Z,72.98
2023-04-02T12:39:34.337Z,76.14
2023-04-02T12:40:34.529Z,72.67
2023-04-02T12:41:34.389Z,74.14
2023-04-02T12:42:34.377Z,73.16
2023-04-02T12:43:34.401Z,74.05
2023-04-02T12:44:34.424Z,76.24
2023-04-02T12:45:34.544Z,76.68
2023-04-02T12:46:34.504Z,73.97
2023-04-02T12:47:34.504Z,74.27
2023-04-02T12:48:34.505Z,74.67
2023-04-02T12:49:34.512Z,75.66
2023-04-02T12:50:34.937Z,75.91
2023-04-02T12:51:34.531Z,73.20
2023-04-02T12:52:34.560Z,72.64
2023-04-02T12:53:34.557Z,76.09
2023-04-02T12:54:34.568Z,72.48